Time;durP1;ratioP1;P1;durP2;ratioP2;P2;SDS_P1;SDS_P2;PMS_P1;PMS_P2;Temp;Humidity;BMP_temperature;BMP_pressure;BME280_temperature;BME280_humidity;BME280_pressure;Samples;Min_cycle;Max_cycle;Signal;HPM_P1;HPM_P2
2024/01/28 00:03:58;;;;;;;121.40;72.88;;;;;;;;;;10107395;28;20178;-76
2024/01/28 00:08:50;;;;;;;116.13;75.15;;;;;;;;;;10106134;28;20139;-76
2024/01/28 00:13:42;;;;;;;115.07;67.68;;;;;;;;;;10108453;28;20047;-76
2024/01/28 00:18:34;;;;;;;102.55;65.30;;;;;;;;;;10108986;28;20119;-77
2024/01/28 00:23:26;;;;;;;101.55;68.70;;;;;;;;;;10116945;28;20077;-76
2024/01/28 00:28:18;;;;;;;105.00;70.63;;;;;;;;;;10113831;28;20040;-77
2024/01/28 00:33:10;;;;;;;104.03;70.90;;;;;;;;;;10106573;28;20052;-76
2024/01/28 00:38:02;;;;;;;103.72;69.00;;;;;;;;;;10107086;28;20057;-76
2024/01/28 00:42:55;;;;;;;103.60;69.40;;;;;;;;;;10092389;28;20127;-76
2024/01/28 00:47:47;;;;;;;117.05;78.47;;;;;;;;;;10094768;28;20139;-76
2024/01/28 00:52:39;;;;;;;127.32;80.57;;;;;;;;;;10106715;28;20087;-76
2024/01/28 00:57:31;;;;;;;117.30;76.38;;;;;;;;;;10106468;28;20360;-76
2024/01/28 01:02:23;;;;;;;112.15;73.22;;;;;;;;;;10093328;28;20439;-76
2024/01/28 01:07:15;;;;;;;140.88;81.40;;;;;;;;;;10079776;28;20037;-76
2024/01/28 01:12:07;;;;;;;133.70;79.43;;;;;;;;;;10104336;28;20368;-76
2024/01/28 01:16:59;;;;;;;129.68;76.07;;;;;;;;;;10102069;28;20045;-76
2024/01/28 01:21:51;;;;;;;134.10;76.40;;;;;;;;;;10102288;28;20049;-76
2024/01/28 01:26:43;;;;;;;155.60;77.57;;;;;;;;;;10101089;28;20483;-76
2024/01/28 01:31:35;;;;;;;121.78;74.85;;;;;;;;;;10103290;28;20102;-76
2024/01/28 01:36:27;;;;;;;132.15;76.72;;;;;;;;;;10100561;28;20365;-76
2024/01/28 01:41:19;;;;;;;113.75;64.90;;;;;;;;;;10100772;28;20052;-76
2024/01/28 01:46:11;;;;;;;100.65;67.05;;;;;;;;;;10101626;28;20148;-77
2024/01/28 01:51:06;;;;;;;104.88;66.60;;;;;;;;;;10100681;28;20056;-76
2024/01/28 01:55:58;;;;;;;117.38;70.72;;;;;;;;;;10101238;28;20041;-76
2024/01/28 02:00:50;;;;;;;115.50;66.53;;;;;;;;;;10099570;28;20053;-76
2024/01/28 02:05:42;;;;;;;122.88;71.32;;;;;;;;;;10097623;28;20386;-76
2024/01/28 02:10:34;;;;;;;114.10;65.68;;;;;;;;;;10100851;28;20049;-76
2024/01/28 02:15:26;;;;;;;124.95;69.47;;;;;;;;;;10100265;28;20041;-76
2024/01/28 02:20:18;;;;;;;120.28;70.60;;;;;;;;;;10100831;28;20037;-76
2024/01/28 02:25:10;;;;;;;124.78;68.55;;;;;;;;;;10101420;28;20459;-76
2024/01/28 02:30:03;;;;;;;114.18;70.47;;;;;;;;;;10100514;28;20102;-75
2024/01/28 02:34:57;;;;;;;148.02;70.50;;;;;;;;;;10099709;28;20048;-76
2024/01/28 02:39:49;;;;;;;121.50;73.25;;;;;;;;;;10101142;28;20132;-76
2024/01/28 02:44:41;;;;;;;129.77;67.68;;;;;;;;;;10098909;28;20154;-76
2024/01/28 02:49:33;;;;;;;153.90;69.10;;;;;;;;;;10098976;28;20066;-76
2024/01/28 02:54:25;;;;;;;206.43;75.45;;;;;;;;;;10100439;28;20098;-76
2024/01/28 02:59:17;;;;;;;128.82;66.70;;;;;;;;;;10099924;28;20091;-76
2024/01/28 03:04:09;;;;;;;146.25;72.85;;;;;;;;;;10100500;28;20038;-76
2024/01/28 03:09:04;;;;;;;133.02;75.13;;;;;;;;;;10099236;28;20041;-75
2024/01/28 03:13:56;;;;;;;146.57;78.93;;;;;;;;;;10099299;28;20049;-75
2024/01/28 03:18:48;;;;;;;138.95;75.43;;;;;;;;;;10106531;28;20095;-76
2024/01/28 03:23:41;;;;;;;155.05;77.70;;;;;;;;;;10106300;28;20060;-75
2024/01/28 03:28:33;;;;;;;157.40;89.20;;;;;;;;;;10101985;28;20045;-77
2024/01/28 03:33:25;;;;;;;151.85;77.70;;;;;;;;;;10107507;28;20452;-76
2024/01/28 03:38:17;;;;;;;166.95;71.03;;;;;;;;;;10105512;28;20047;-76
2024/01/28 03:43:09;;;;;;;125.60;71.40;;;;;;;;;;10105638;28;20335;-76
2024/01/28 03:48:01;;;;;;;130.40;75.72;;;;;;;;;;10097249;28;20135;-76
2024/01/28 03:52:53;;;;;;;148.45;79.82;;;;;;;;;;10105807;28;20049;-76
2024/01/28 03:57:46;;;;;;;128.95;77.60;;;;;;;;;;10103986;28;20434;-76
2024/01/28 04:02:38;;;;;;;142.18;85.53;;;;;;;;;;10101945;28;20082;-76
2024/01/28 04:07:30;;;;;;;130.50;74.05;;;;;;;;;;10105745;28;20045;-76
2024/01/28 04:12:22;;;;;;;139.27;76.97;;;;;;;;;;10104622;28;20092;-76
2024/01/28 04:17:14;;;;;;;124.60;72.07;;;;;;;;;;10096489;28;20091;-76
2024/01/28 04:22:10;;;;;;;131.43;72.53;;;;;;;;;;10105063;28;20044;-76
2024/01/28 04:27:02;;;;;;;143.65;71.82;;;;;;;;;;10103429;28;20434;-76
2024/01/28 04:31:54;;;;;;;162.15;73.43;;;;;;;;;;10104446;28;20052;-76
2024/01/28 04:36:46;;;;;;;167.93;96.20;;;;;;;;;;10101637;28;20047;-76
2024/01/28 04:41:38;;;;;;;147.32;77.63;;;;;;;;;;10103961;28;20060;-76
2024/01/28 04:46:30;;;;;;;136.00;70.07;;;;;;;;;;10103626;28;20520;-76
2024/01/28 04:51:22;;;;;;;164.70;69.68;;;;;;;;;;10103793;28;20045;-76
2024/01/28 04:56:14;;;;;;;141.43;67.55;;;;;;;;;;10101732;28;20061;-76
2024/01/28 05:01:07;;;;;;;120.97;66.65;;;;;;;;;;10103693;28;20784;-76
2024/01/28 05:05:59;;;;;;;96.80;62.70;;;;;;;;;;10101725;28;20036;-76
2024/01/28 05:10:52;;;;;;;103.15;60.83;;;;;;;;;;10103038;28;20041;-76
2024/01/28 05:15:44;;;;;;;114.97;61.70;;;;;;;;;;10102731;28;20037;-76
2024/01/28 05:20:37;;;;;;;100.45;58.25;;;;;;;;;;10102492;28;20140;-76
2024/01/28 05:25:31;;;;;;;96.65;59.35;;;;;;;;;;10101080;28;20048;-75
2024/01/28 05:30:23;;;;;;;116.45;64.30;;;;;;;;;;10101917;28;20083;-78
2024/01/28 05:35:15;;;;;;;100.18;55.65;;;;;;;;;;10101953;28;20033;-75
2024/01/28 05:40:08;;;;;;;119.75;53.85;;;;;;;;;;10103070;28;20145;-75
2024/01/28 05:45:00;;;;;;;92.80;53.08;;;;;;;;;;10099814;28;20059;-75
2024/01/28 05:49:52;;;;;;;98.90;53.30;;;;;;;;;;10101043;28;20053;-75
2024/01/28 05:54:44;;;;;;;88.88;52.35;;;;;;;;;;10101649;28;20055;-74
2024/01/28 05:59:36;;;;;;;94.88;49.72;;;;;;;;;;10100883;28;20343;-75
2024/01/28 06:04:29;;;;;;;121.45;49.00;;;;;;;;;;10090724;28;20041;-76
2024/01/28 06:09:20;;;;;;;118.88;53.55;;;;;;;;;;10098558;28;20577;-75
2024/01/28 06:14:12;;;;;;;129.20;57.90;;;;;;;;;;10099504;28;20148;-76
2024/01/28 06:19:05;;;;;;;128.73;48.95;;;;;;;;;;10098568;28;20037;-75
2024/01/28 06:23:57;;;;;;;124.47;46.72;;;;;;;;;;10100988;28;20435;-75
2024/01/28 06:28:49;;;;;;;69.07;43.72;;;;;;;;;;10099878;28;20215;-76
2024/01/28 06:33:41;;;;;;;94.97;49.95;;;;;;;;;;10101708;28;20047;-76
2024/01/28 06:38:33;;;;;;;81.53;46.03;;;;;;;;;;10086132;28;20049;-76
2024/01/28 06:43:25;;;;;;;99.35;48.63;;;;;;;;;;10082479;28;20117;-76
2024/01/28 06:48:17;;;;;;;132.50;51.90;;;;;;;;;;10083360;28;20526;-76
2024/01/28 06:53:10;;;;;;;112.15;49.20;;;;;;;;;;10075143;28;20428;-77
2024/01/28 06:58:02;;;;;;;96.80;46.25;;;;;;;;;;10084281;28;20164;-76
2024/01/28 07:02:54;;;;;;;70.63;39.97;;;;;;;;;;10085200;28;20294;-76
2024/01/28 07:07:46;;;;;;;105.13;45.08;;;;;;;;;;10105389;28;20072;-76
2024/01/28 07:12:38;;;;;;;79.72;44.83;;;;;;;;;;10096049;28;20417;-76
2024/01/28 07:17:30;;;;;;;137.75;42.92;;;;;;;;;;10083489;28;20178;-76
2024/01/28 07:22:22;;;;;;;74.22;40.33;;;;;;;;;;10096550;28;20049;-76
2024/01/28 07:27:14;;;;;;;113.60;40.60;;;;;;;;;;10096149;28;20045;-76
2024/01/28 07:32:07;;;;;;;96.30;40.38;;;;;;;;;;10089610;28;20037;-76
2024/01/28 07:36:58;;;;;;;99.30;37.95;;;;;;;;;;10094339;28;20046;-76
2024/01/28 07:41:51;;;;;;;61.95;35.85;;;;;;;;;;10083290;28;20111;-76
2024/01/28 07:46:43;;;;;;;70.47;37.75;;;;;;;;;;10103242;28;20135;-76
2024/01/28 07:51:35;;;;;;;102.38;40.13;;;;;;;;;;10101193;28;20041;-76
2024/01/28 07:56:27;;;;;;;67.50;37.95;;;;;;;;;;10095651;28;20045;-76
2024/01/28 08:01:19;;;;;;;75.50;36.78;;;;;;;;;;10090057;28;20124;-77
2024/01/28 08:06:12;;;;;;;74.07;39.72;;;;;;;;;;10081952;28;20464;-77
2024/01/28 08:11:05;;;;;;;53.10;36.60;;;;;;;;;;10088839;28;20041;-76
2024/01/28 08:16:01;;;;;;;76.15;37.40;;;;;;;;;;10069247;28;20041;-76
2024/01/28 08:20:54;;;;;;;66.57;43.75;;;;;;;;;;10089707;28;20044;-76
2024/01/28 08:25:46;;;;;;;65.60;38.72;;;;;;;;;;10089239;28;20045;-76
2024/01/28 08:30:38;;;;;;;55.80;37.85;;;;;;;;;;10089532;28;20049;-76
2024/01/28 08:35:33;;;;;;;54.45;38.13;;;;;;;;;;10098077;28;20044;-76
2024/01/28 08:40:25;;;;;;;54.65;34.83;;;;;;;;;;10100441;28;20045;-75
2024/01/28 08:45:17;;;;;;;81.32;40.47;;;;;;;;;;10097639;28;20044;-76
2024/01/28 08:50:09;;;;;;;80.30;41.78;;;;;;;;;;10102239;28;20041;-76
2024/01/28 08:55:02;;;;;;;107.57;50.25;;;;;;;;;;10103395;28;20329;-76
2024/01/28 08:59:54;;;;;;;65.25;35.75;;;;;;;;;;10097182;28;20045;-75
2024/01/28 09:04:46;;;;;;;56.55;36.00;;;;;;;;;;10106060;28;20072;-76
2024/01/28 09:09:38;;;;;;;51.08;35.10;;;;;;;;;;10085077;28;20045;-76
2024/01/28 09:14:30;;;;;;;45.65;31.13;;;;;;;;;;10090312;28;20087;-78
2024/01/28 09:19:22;;;;;;;45.22;33.45;;;;;;;;;;10088655;28;20152;-76
2024/01/28 09:24:14;;;;;;;45.20;31.63;;;;;;;;;;10087002;28;20052;-75
2024/01/28 09:29:06;;;;;;;53.55;35.55;;;;;;;;;;10090194;28;20095;-75
2024/01/28 09:33:58;;;;;;;58.85;36.97;;;;;;;;;;10104103;28;20057;-75
2024/01/28 09:38:50;;;;;;;41.00;30.60;;;;;;;;;;10090539;28;20057;-75
2024/01/28 09:43:43;;;;;;;40.88;32.22;;;;;;;;;;10080079;28;20064;-76
2024/01/28 09:48:35;;;;;;;43.83;33.22;;;;;;;;;;10090783;28;20079;-77
2024/01/28 09:53:28;;;;;;;43.70;31.80;;;;;;;;;;10090466;28;20136;-77
2024/01/28 09:58:20;;;;;;;39.95;31.90;;;;;;;;;;10089558;28;20102;-77
2024/01/28 10:03:14;;;;;;;45.67;34.15;;;;;;;;;;10103807;28;20479;-77
2024/01/28 10:08:07;;;;;;;45.50;35.55;;;;;;;;;;10087694;28;20048;-77
2024/01/28 10:12:59;;;;;;;48.97;36.40;;;;;;;;;;10097115;28;20483;-77
2024/01/28 10:17:51;;;;;;;51.30;35.53;;;;;;;;;;10094857;28;20045;-78
2024/01/28 10:22:43;;;;;;;51.22;37.22;;;;;;;;;;10097253;28;20037;-78
2024/01/28 10:27:35;;;;;;;48.63;35.85;;;;;;;;;;10106169;28;20067;-77
2024/01/28 10:32:27;;;;;;;47.10;35.00;;;;;;;;;;10107310;28;20143;-70
2024/01/28 10:37:19;;;;;;;45.35;36.17;;;;;;;;;;10106282;28;20170;-70
2024/01/28 10:42:13;;;;;;;54.97;42.38;;;;;;;;;;10087763;28;20054;-77
2024/01/28 10:47:08;;;;;;;58.80;42.05;;;;;;;;;;10083002;28;20041;-75
2024/01/28 10:52:01;;;;;;;56.70;42.00;;;;;;;;;;10085908;28;20429;-73
2024/01/28 10:56:53;;;;;;;57.13;39.70;;;;;;;;;;10077572;28;20064;-73
2024/01/28 11:01:45;;;;;;;51.33;38.40;;;;;;;;;;10096987;28;20103;-74
2024/01/28 11:06:37;;;;;;;50.13;36.10;;;;;;;;;;10107404;28;20077;-73
2024/01/28 11:11:30;;;;;;;53.65;40.67;;;;;;;;;;10105237;28;20092;-73
2024/01/28 11:16:22;;;;;;;67.43;47.20;;;;;;;;;;10086621;28;20047;-73
2024/01/28 11:21:19;;;;;;;46.45;34.85;;;;;;;;;;10079389;28;20088;-73
2024/01/28 11:26:16;;;;;;;49.65;38.60;;;;;;;;;;10082732;28;20065;-73
2024/01/28 11:31:25;;;;;;;52.88;35.83;;;;;;;;;;10084590;28;20107;-73
2024/01/28 11:36:25;;;;;;;45.80;37.00;;;;;;;;;;10078624;28;20372;-73
2024/01/28 11:41:19;;;;;;;53.33;36.08;;;;;;;;;;10073126;28;20050;-74
2024/01/28 11:46:11;;;;;;;55.17;39.58;;;;;;;;;;10086810;28;20110;-73
2024/01/28 11:51:03;;;;;;;49.22;38.28;;;;;;;;;;10077819;28;20088;-72
2024/01/28 11:56:05;;;;;;;52.95;40.08;;;;;;;;;;10097916;28;20045;-75
2024/01/28 12:00:57;;;;;;;57.58;41.20;;;;;;;;;;10102734;28;20048;-73
2024/01/28 12:05:50;;;;;;;51.15;40.35;;;;;;;;;;10085274;28;20084;-73
2024/01/28 12:10:41;;;;;;;74.40;52.90;;;;;;;;;;10105979;28;20060;-72
2024/01/28 12:15:33;;;;;;;48.67;37.95;;;;;;;;;;10082601;28;20069;-72
2024/01/28 12:20:26;;;;;;;51.58;38.47;;;;;;;;;;10089477;28;20049;-73
2024/01/28 12:25:24;;;;;;;49.88;37.85;;;;;;;;;;10082859;28;20137;-72
2024/01/28 12:30:17;;;;;;;49.63;39.33;;;;;;;;;;10105637;28;20049;-72
2024/01/28 12:35:09;;;;;;;56.90;41.60;;;;;;;;;;10092025;28;20041;-77
2024/01/28 12:40:02;;;;;;;62.85;49.40;;;;;;;;;;10097864;28;20064;-76
2024/01/28 12:44:54;;;;;;;57.67;45.05;;;;;;;;;;10098882;28;20144;-75
2024/01/28 12:49:46;;;;;;;58.60;44.05;;;;;;;;;;10100474;28;20504;-75
2024/01/28 12:54:38;;;;;;;57.90;43.95;;;;;;;;;;10095369;28;20053;-75
2024/01/28 12:59:30;;;;;;;57.63;43.60;;;;;;;;;;10099470;28;20052;-75
2024/01/28 13:04:22;;;;;;;57.20;43.35;;;;;;;;;;10097200;28;20071;-75
2024/01/28 13:09:14;;;;;;;59.58;43.80;;;;;;;;;;10087013;28;20483;-75
2024/01/28 13:14:06;;;;;;;58.15;45.53;;;;;;;;;;10099705;28;20049;-75
2024/01/28 13:18:58;;;;;;;59.92;45.88;;;;;;;;;;10091793;28;20049;-75
2024/01/28 13:23:50;;;;;;;58.83;45.67;;;;;;;;;;10093913;28;20056;-77
2024/01/28 13:28:42;;;;;;;59.13;46.20;;;;;;;;;;10095185;28;20037;-76
2024/01/28 13:33:34;;;;;;;62.33;45.17;;;;;;;;;;10096605;28;20072;-76
2024/01/28 13:38:27;;;;;;;64.75;45.75;;;;;;;;;;10085771;28;20041;-76
2024/01/28 13:43:18;;;;;;;68.22;47.75;;;;;;;;;;10096340;28;20045;-75
2024/01/28 13:48:12;;;;;;;62.65;47.20;;;;;;;;;;10097879;28;20068;-75
2024/01/28 13:53:08;;;;;;;70.38;48.60;;;;;;;;;;10085848;28;20139;-75
2024/01/28 13:58:00;;;;;;;63.28;45.78;;;;;;;;;;10094868;28;20179;-75
2024/01/28 14:02:53;;;;;;;59.67;44.63;;;;;;;;;;10104309;28;20079;-74
2024/01/28 14:07:46;;;;;;;69.90;49.28;;;;;;;;;;10076625;28;20053;-75
2024/01/28 14:12:38;;;;;;;62.50;46.38;;;;;;;;;;10104362;28;20416;-75
2024/01/28 14:17:30;;;;;;;66.78;47.15;;;;;;;;;;10102553;28;20057;-77
2024/01/28 14:22:22;;;;;;;62.90;47.25;;;;;;;;;;10093207;28;20046;-75
2024/01/28 14:27:14;;;;;;;72.88;50.15;;;;;;;;;;10100724;28;20041;-75
2024/01/28 14:32:06;;;;;;;72.40;50.08;;;;;;;;;;10099555;28;20102;-75
2024/01/28 14:36:58;;;;;;;68.28;46.03;;;;;;;;;;10101067;28;20360;-75
2024/01/28 14:41:50;;;;;;;73.95;51.90;;;;;;;;;;10102384;28;20087;-75
2024/01/28 14:46:42;;;;;;;77.32;50.17;;;;;;;;;;10102434;28;20051;-75
2024/01/28 14:51:39;;;;;;;80.57;52.25;;;;;;;;;;10103420;28;20421;-76
2024/01/28 14:56:31;;;;;;;68.28;46.63;;;;;;;;;;10085006;28;20467;-75
2024/01/28 15:01:23;;;;;;;71.63;51.25;;;;;;;;;;10087448;28;20042;-75
2024/01/28 15:06:15;;;;;;;80.32;55.75;;;;;;;;;;10083395;28;20045;-78
2024/01/28 15:11:09;;;;;;;72.75;52.28;;;;;;;;;;10089648;28;20049;-78
2024/01/28 15:16:02;;;;;;;79.32;50.03;;;;;;;;;;10101162;28;20041;-76
2024/01/28 15:20:55;;;;;;;74.45;54.58;;;;;;;;;;10096250;28;20045;-75
2024/01/28 15:25:46;;;;;;;78.70;52.38;;;;;;;;;;10109672;28;20099;-75
2024/01/28 15:30:38;;;;;;;74.88;53.75;;;;;;;;;;10094917;28;20053;-76
2024/01/28 15:35:31;;;;;;;84.65;56.35;;;;;;;;;;10096213;28;20033;-76
2024/01/28 15:40:22;;;;;;;73.25;51.42;;;;;;;;;;10094121;28;20090;-76
2024/01/28 15:45:14;;;;;;;79.45;52.63;;;;;;;;;;10095711;28;20095;-79
2024/01/28 15:50:07;;;;;;;80.47;55.53;;;;;;;;;;10106895;28;20085;-76
2024/01/28 15:54:59;;;;;;;87.38;59.13;;;;;;;;;;10102588;28;20068;-79
2024/01/28 15:59:55;;;;;;;78.03;56.55;;;;;;;;;;10106594;28;20396;-76
2024/01/28 16:04:58;;;;;;;86.15;56.67;;;;;;;;;;10075190;28;20413;-76
2024/01/28 16:09:51;;;;;;;88.55;58.95;;;;;;;;;;10097101;28;20064;-76
2024/01/28 16:14:43;;;;;;;86.40;59.35;;;;;;;;;;10084612;28;20049;-76
2024/01/28 16:19:35;;;;;;;91.40;60.60;;;;;;;;;;10083216;28;20463;-77
2024/01/28 16:24:27;;;;;;;89.35;57.13;;;;;;;;;;10071943;28;20034;-76
2024/01/28 16:29:21;;;;;;;94.45;63.92;;;;;;;;;;10087559;28;20056;-76
2024/01/28 16:34:14;;;;;;;98.90;62.72;;;;;;;;;;10096463;28;20120;-77
2024/01/28 16:39:06;;;;;;;101.97;65.68;;;;;;;;;;10105517;28;20119;-76
2024/01/28 16:43:57;;;;;;;90.35;60.17;;;;;;;;;;10106544;28;20098;-77
2024/01/28 16:48:49;;;;;;;85.82;58.72;;;;;;;;;;10102900;28;20348;-77
2024/01/28 16:53:42;;;;;;;86.57;55.95;;;;;;;;;;10102950;28;20539;-77
2024/01/28 16:58:34;;;;;;;94.30;58.42;;;;;;;;;;10080798;28;20128;-77
2024/01/28 17:03:26;;;;;;;94.80;58.97;;;;;;;;;;10087541;28;20147;-76
2024/01/28 17:08:18;;;;;;;101.40;61.65;;;;;;;;;;10091303;28;20152;-77
2024/01/28 17:13:10;;;;;;;89.47;58.88;;;;;;;;;;10084833;28;20435;-77
2024/01/28 17:18:02;;;;;;;93.20;61.28;;;;;;;;;;10088332;28;20132;-77
2024/01/28 17:22:54;;;;;;;94.30;59.95;;;;;;;;;;10084334;28;20057;-77
2024/01/28 17:27:47;;;;;;;88.32;56.15;;;;;;;;;;10081718;28;20049;-77
2024/01/28 17:32:39;;;;;;;103.85;65.60;;;;;;;;;;10093191;28;20128;-75
2024/01/28 17:37:32;;;;;;;113.72;76.55;;;;;;;;;;10083790;28;20156;-79
2024/01/28 17:42:24;;;;;;;107.28;71.35;;;;;;;;;;10084638;28;20061;-76
2024/01/28 17:47:19;;;;;;;98.10;61.80;;;;;;;;;;10090324;28;20048;-75
2024/01/28 17:52:11;;;;;;;96.97;60.38;;;;;;;;;;10096020;28;20056;-77
2024/01/28 17:57:04;;;;;;;95.32;64.70;;;;;;;;;;10097132;28;20044;-78
2024/01/28 18:01:56;;;;;;;131.48;82.60;;;;;;;;;;10100068;28;20503;-75
2024/01/28 18:06:48;;;;;;;111.60;68.25;;;;;;;;;;10087144;28;20590;-74
2024/01/28 18:11:40;;;;;;;120.25;77.43;;;;;;;;;;10090003;28;20049;-74
2024/01/28 18:16:33;;;;;;;102.60;62.60;;;;;;;;;;10095292;28;20051;-74
2024/01/28 18:21:25;;;;;;;96.80;59.97;;;;;;;;;;10085258;28;20033;-75
2024/01/28 18:26:17;;;;;;;104.00;63.00;;;;;;;;;;10090822;28;20103;-74
2024/01/28 18:31:09;;;;;;;187.50;124.57;;;;;;;;;;10081201;28;20045;-77
2024/01/28 18:36:01;;;;;;;112.75;64.70;;;;;;;;;;10075124;28;20439;-76
2024/01/28 18:40:53;;;;;;;109.47;64.65;;;;;;;;;;10102305;28;20060;-76
2024/01/28 18:45:45;;;;;;;113.70;72.43;;;;;;;;;;10089854;28;20099;-76
2024/01/28 18:50:41;;;;;;;98.10;62.47;;;;;;;;;;10111361;28;20379;-76
2024/01/28 18:55:33;;;;;;;89.40;56.50;;;;;;;;;;10102234;28;20053;-76
2024/01/28 19:00:25;;;;;;;95.78;55.97;;;;;;;;;;10110624;28;20435;-75
2024/01/28 19:05:17;;;;;;;91.05;57.58;;;;;;;;;;10075969;28;20048;-76
2024/01/28 19:10:10;;;;;;;114.50;69.07;;;;;;;;;;10104009;28;20111;-76
2024/01/28 19:15:02;;;;;;;94.57;59.60;;;;;;;;;;10107375;28;20049;-75
2024/01/28 19:19:53;;;;;;;86.13;58.28;;;;;;;;;;10107019;28;20048;-75
2024/01/28 19:24:45;;;;;;;93.60;58.60;;;;;;;;;;10106951;28;20353;-77
2024/01/28 19:29:39;;;;;;;89.78;57.42;;;;;;;;;;10105658;28;20055;-76
2024/01/28 19:34:31;;;;;;;100.35;64.40;;;;;;;;;;10103918;28;20128;-77
2024/01/28 19:39:23;;;;;;;129.13;75.00;;;;;;;;;;10105992;28;20357;-76
2024/01/28 19:44:16;;;;;;;127.30;65.53;;;;;;;;;;10107088;28;20107;-77
2024/01/28 19:49:08;;;;;;;123.53;70.60;;;;;;;;;;10107265;28;20102;-76
2024/01/28 19:54:00;;;;;;;134.95;72.55;;;;;;;;;;10094243;28;20049;-76
2024/01/28 19:58:53;;;;;;;131.65;72.85;;;;;;;;;;10091201;28;20049;-76
2024/01/28 20:03:45;;;;;;;110.78;64.40;;;;;;;;;;10105157;28;20080;-76
2024/01/28 20:08:38;;;;;;;103.80;61.17;;;;;;;;;;10096785;28;20069;-75
2024/01/28 20:13:29;;;;;;;104.47;58.83;;;;;;;;;;10090548;28;20045;-76
2024/01/28 20:18:23;;;;;;;113.95;62.35;;;;;;;;;;10081012;28;20124;-75
2024/01/28 20:23:18;;;;;;;155.82;60.60;;;;;;;;;;10093725;28;20124;-76
2024/01/28 20:28:12;;;;;;;137.27;68.03;;;;;;;;;;10099880;28;20048;-75
2024/01/28 20:33:05;;;;;;;212.38;61.88;;;;;;;;;;10090637;28;20076;-75
2024/01/28 20:37:57;;;;;;;139.25;76.25;;;;;;;;;;10079710;28;20065;-75
2024/01/28 20:42:50;;;;;;;142.30;62.92;;;;;;;;;;10092420;28;20053;-76
2024/01/28 20:47:43;;;;;;;102.15;57.78;;;;;;;;;;10081471;28;20112;-75
2024/01/28 20:52:35;;;;;;;100.97;52.85;;;;;;;;;;10102285;28;20092;-76
2024/01/28 20:57:27;;;;;;;104.25;54.50;;;;;;;;;;10101792;28;20076;-78
2024/01/28 21:02:20;;;;;;;209.30;57.08;;;;;;;;;;10088762;28;20069;-78
2024/01/28 21:07:12;;;;;;;152.23;64.45;;;;;;;;;;10106547;28;20121;-78
2024/01/28 21:12:04;;;;;;;247.35;52.10;;;;;;;;;;10105229;28;20041;-78
2024/01/28 21:16:56;;;;;;;179.98;58.50;;;;;;;;;;10105323;28;20045;-78
2024/01/28 21:21:51;;;;;;;201.20;72.57;;;;;;;;;;10093887;28;20357;-76
2024/01/28 21:26:44;;;;;;;137.18;53.38;;;;;;;;;;10091690;28;20057;-77
2024/01/28 21:31:36;;;;;;;146.25;54.85;;;;;;;;;;10081388;28;20099;-76
2024/01/28 21:36:28;;;;;;;172.38;61.28;;;;;;;;;;10091554;28;20045;-76
2024/01/28 21:41:20;;;;;;;177.75;52.25;;;;;;;;;;10103316;28;20121;-78
2024/01/28 21:46:13;;;;;;;156.52;47.47;;;;;;;;;;10083269;28;20063;-76
2024/01/28 21:51:05;;;;;;;187.13;46.10;;;;;;;;;;10078610;28;20049;-76
2024/01/28 21:56:00;;;;;;;107.07;45.50;;;;;;;;;;10095150;28;20067;-76
2024/01/28 22:00:52;;;;;;;95.53;49.85;;;;;;;;;;10097435;28;20045;-76
2024/01/28 22:05:44;;;;;;;99.90;45.47;;;;;;;;;;10099646;28;20078;-76
2024/01/28 22:10:36;;;;;;;116.97;40.65;;;;;;;;;;10099384;28;20045;-76
2024/01/28 22:15:28;;;;;;;109.82;38.10;;;;;;;;;;10097485;28;20094;-76
2024/01/28 22:20:20;;;;;;;189.50;43.95;;;;;;;;;;10094782;28;20079;-76
2024/01/28 22:25:12;;;;;;;102.47;46.33;;;;;;;;;;10095976;28;20064;-75
2024/01/28 22:30:05;;;;;;;79.60;43.17;;;;;;;;;;10085581;28;20080;-76
2024/01/28 22:34:57;;;;;;;72.82;44.60;;;;;;;;;;10095980;28;20111;-76
2024/01/28 22:39:49;;;;;;;69.72;42.90;;;;;;;;;;10082814;28;20078;-75
2024/01/28 22:44:41;;;;;;;80.38;41.88;;;;;;;;;;10094518;28;20037;-76
2024/01/28 22:49:33;;;;;;;84.65;40.58;;;;;;;;;;10096068;28;20045;-76
2024/01/28 22:54:25;;;;;;;94.72;46.80;;;;;;;;;;10096727;28;20060;-75
2024/01/28 22:59:17;;;;;;;115.63;43.15;;;;;;;;;;10103809;28;20049;-75
2024/01/28 23:04:09;;;;;;;76.60;40.45;;;;;;;;;;10084722;28;20536;-76
2024/01/28 23:09:01;;;;;;;144.57;44.42;;;;;;;;;;10095202;28;20045;-76
2024/01/28 23:13:53;;;;;;;142.68;43.03;;;;;;;;;;10103348;28;20067;-75
2024/01/28 23:18:45;;;;;;;95.78;40.22;;;;;;;;;;10102946;28;20049;-76
2024/01/28 23:23:37;;;;;;;80.10;38.25;;;;;;;;;;10102464;28;20127;-76
2024/01/28 23:28:29;;;;;;;136.40;44.65;;;;;;;;;;10089764;28;20056;-75
2024/01/28 23:33:21;;;;;;;137.98;45.35;;;;;;;;;;10066615;28;20049;-76
2024/01/28 23:38:13;;;;;;;88.18;47.20;;;;;;;;;;10083004;28;20076;-75
2024/01/28 23:43:05;;;;;;;134.77;42.75;;;;;;;;;;10096887;28;20094;-76
2024/01/28 23:47:57;;;;;;;119.97;40.10;;;;;;;;;;10095897;28;20088;-76
2024/01/28 23:52:50;;;;;;;62.92;38.60;;;;;;;;;;10104003;28;20053;-76
2024/01/28 23:57:42;;;;;;;85.63;38.65;;;;;;;;;;10101461;28;20041;-75
